sensor_id;sensor_type;location;lat;lon;timestamp;temperature;humidity
25108;DHT22;13090;53.422;7.670;2023-04-06T00:01:20;5.00;69.90
25108;DHT22;13090;53.422;7.670;2023-04-06T00:06:22;4.90;68.50
25108;DHT22;13090;53.422;7.670;2023-04-06T00:11:27;4.90;68.20
25108;DHT22;13090;53.422;7.670;2023-04-06T00:16:31;4.90;68.70
25108;DHT22;13090;53.422;7.670;2023-04-06T00:21:33;4.80;69.20
25108;DHT22;13090;53.422;7.670;2023-04-06T00:26:37;4.80;69.00
25108;DHT22;13090;53.422;7.670;2023-04-06T00:31:39;4.80;69.30
25108;DHT22;13090;53.422;7.670;2023-04-06T00:36:41;4.80;69.00
25108;DHT22;13090;53.422;7.670;2023-04-06T00:41:51;4.80;68.80
25108;DHT22;13090;53.422;7.670;2023-04-06T00:46:53;4.70;69.30
25108;DHT22;13090;53.422;7.670;2023-04-06T00:51:56;4.70;68.60
25108;DHT22;13090;53.422;7.670;2023-04-06T00:57:02;4.70;69.30
25108;DHT22;13090;53.422;7.670;2023-04-06T01:02:04;4.60;70.30
25108;DHT22;13090;53.422;7.670;2023-04-06T01:07:06;4.60;69.80
25108;DHT22;13090;53.422;7.670;2023-04-06T01:12:10;4.60;70.20
25108;DHT22;13090;53.422;7.670;2023-04-06T01:17:12;4.60;70.10
25108;DHT22;13090;53.422;7.670;2023-04-06T01:22:17;4.60;69.60
25108;DHT22;13090;53.422;7.670;2023-04-06T01:27:19;4.60;70.00
25108;DHT22;13090;53.422;7.670;2023-04-06T01:32:21;4.60;70.20
25108;DHT22;13090;53.422;7.670;2023-04-06T01:37:25;4.50;69.80
25108;DHT22;13090;53.422;7.670;2023-04-06T01:42:27;4.50;71.80
25108;DHT22;13090;53.422;7.670;2023-04-06T01:47:29;4.40;71.40
25108;DHT22;13090;53.422;7.670;2023-04-06T01:52:33;4.40;70.10
25108;DHT22;13090;53.422;7.670;2023-04-06T01:57:35;4.40;69.90
25108;DHT22;13090;53.422;7.670;2023-04-06T02:02:40;4.40;69.80
25108;DHT22;13090;53.422;7.670;2023-04-06T02:07:44;4.40;70.70
25108;DHT22;13090;53.422;7.670;2023-04-06T02:12:46;4.40;70.90
25108;DHT22;13090;53.422;7.670;2023-04-06T02:17:51;4.40;73.10
25108;DHT22;13090;53.422;7.670;2023-04-06T02:22:58;4.40;72.50
25108;DHT22;13090;53.422;7.670;2023-04-06T02:28:00;4.30;71.90
25108;DHT22;13090;53.422;7.670;2023-04-06T02:33:03;4.40;70.70
25108;DHT22;13090;53.422;7.670;2023-04-06T02:38:06;4.40;70.20
25108;DHT22;13090;53.422;7.670;2023-04-06T02:43:09;4.40;70.30
25108;DHT22;13090;53.422;7.670;2023-04-06T02:48:11;4.40;69.80
25108;DHT22;13090;53.422;7.670;2023-04-06T02:53:14;4.40;69.40
25108;DHT22;13090;53.422;7.670;2023-04-06T02:58:17;4.40;69.20
25108;DHT22;13090;53.422;7.670;2023-04-06T03:03:19;4.40;70.60
25108;DHT22;13090;53.422;7.670;2023-04-06T03:08:23;4.30;72.20
25108;DHT22;13090;53.422;7.670;2023-04-06T03:13:25;4.30;71.30
25108;DHT22;13090;53.422;7.670;2023-04-06T03:18:27;4.20;70.80
25108;DHT22;13090;53.422;7.670;2023-04-06T03:23:31;4.20;73.20
25108;DHT22;13090;53.422;7.670;2023-04-06T03:28:33;4.10;72.40
25108;DHT22;13090;53.422;7.670;2023-04-06T03:33:36;4.10;72.40
25108;DHT22;13090;53.422;7.670;2023-04-06T03:38:40;4.00;75.70
25108;DHT22;13090;53.422;7.670;2023-04-06T03:43:42;4.00;75.80
25108;DHT22;13090;53.422;7.670;2023-04-06T03:48:47;3.90;78.00
25108;DHT22;13090;53.422;7.670;2023-04-06T03:53:51;3.90;75.30
25108;DHT22;13090;53.422;7.670;2023-04-06T03:58:53;3.80;74.70
25108;DHT22;13090;53.422;7.670;2023-04-06T04:03:56;3.80;76.60
25108;DHT22;13090;53.422;7.670;2023-04-06T04:08:59;3.80;76.50
25108;DHT22;13090;53.422;7.670;2023-04-06T04:14:02;3.80;77.80
25108;DHT22;13090;53.422;7.670;2023-04-06T04:19:04;3.80;75.70
25108;DHT22;13090;53.422;7.670;2023-04-06T04:24:08;3.80;75.00
25108;DHT22;13090;53.422;7.670;2023-04-06T04:29:10;3.80;74.90
25108;DHT22;13090;53.422;7.670;2023-04-06T04:34:12;3.80;74.20
25108;DHT22;13090;53.422;7.670;2023-04-06T04:39:19;3.70;74.80
25108;DHT22;13090;53.422;7.670;2023-04-06T04:44:21;3.70;74.70
25108;DHT22;13090;53.422;7.670;2023-04-06T04:49:23;3.70;77.30
25108;DHT22;13090;53.422;7.670;2023-04-06T04:54:26;3.60;75.90
25108;DHT22;13090;53.422;7.670;2023-04-06T04:59:29;3.60;75.60
25108;DHT22;13090;53.422;7.670;2023-04-06T05:04:31;3.60;77.30
25108;DHT22;13090;53.422;7.670;2023-04-06T05:09:35;3.60;75.70
25108;DHT22;13090;53.422;7.670;2023-04-06T05:14:37;3.60;75.70
25108;DHT22;13090;53.422;7.670;2023-04-06T05:19:39;3.70;76.20
25108;DHT22;13090;53.422;7.670;2023-04-06T05:24:43;3.90;75.50
25108;DHT22;13090;53.422;7.670;2023-04-06T05:29:45;4.00;75.70
25108;DHT22;13090;53.422;7.670;2023-04-06T05:34:48;4.30;75.50
25108;DHT22;13090;53.422;7.670;2023-04-06T05:39:52;4.80;75.30
25108;DHT22;13090;53.422;7.670;2023-04-06T05:44:55;5.30;74.10
25108;DHT22;13090;53.422;7.670;2023-04-06T05:49:58;5.90;72.80
25108;DHT22;13090;53.422;7.670;2023-04-06T05:55:01;6.40;71.20
25108;DHT22;13090;53.422;7.670;2023-04-06T06:00:05;6.90;69.80
25108;DHT22;13090;53.422;7.670;2023-04-06T06:05:10;7.40;68.40
25108;DHT22;13090;53.422;7.670;2023-04-06T06:10:15;7.80;66.90
25108;DHT22;13090;53.422;7.670;2023-04-06T06:15:18;8.30;65.50
25108;DHT22;13090;53.422;7.670;2023-04-06T06:20:20;8.60;63.70
25108;DHT22;13090;53.422;7.670;2023-04-06T06:25:24;8.90;62.90
25108;DHT22;13090;53.422;7.670;2023-04-06T06:30:27;9.30;61.30
25108;DHT22;13090;53.422;7.670;2023-04-06T06:35:30;9.60;61.10
25108;DHT22;13090;53.422;7.670;2023-04-06T06:40:34;9.90;59.60
25108;DHT22;13090;53.422;7.670;2023-04-06T06:45:36;10.30;59.30
25108;DHT22;13090;53.422;7.670;2023-04-06T06:50:40;10.60;58.00
25108;DHT22;13090;53.422;7.670;2023-04-06T06:55:44;10.80;55.70
25108;DHT22;13090;53.422;7.670;2023-04-06T07:00:46;11.00;56.10
25108;DHT22;13090;53.422;7.670;2023-04-06T07:05:50;11.20;56.30
25108;DHT22;13090;53.422;7.670;2023-04-06T07:10:53;11.30;53.80
25108;DHT22;13090;53.422;7.670;2023-04-06T07:15:57;11.50;54.20
25108;DHT22;13090;53.422;7.670;2023-04-06T07:20:59;11.80;53.20
25108;DHT22;13090;53.422;7.670;2023-04-06T07:26:03;12.10;54.90
25108;DHT22;13090;53.422;7.670;2023-04-06T07:31:06;12.50;54.30
25108;DHT22;13090;53.422;7.670;2023-04-06T07:36:08;13.00;53.70
25108;DHT22;13090;53.422;7.670;2023-04-06T07:41:12;13.40;52.70
25108;DHT22;13090;53.422;7.670;2023-04-06T07:46:16;13.70;50.90
25108;DHT22;13090;53.422;7.670;2023-04-06T07:51:23;14.00;51.40
25108;DHT22;13090;53.422;7.670;2023-04-06T07:56:26;14.30;50.40
25108;DHT22;13090;53.422;7.670;2023-04-06T08:01:29;14.50;49.00
25108;DHT22;13090;53.422;7.670;2023-04-06T08:06:31;14.60;47.40
25108;DHT22;13090;53.422;7.670;2023-04-06T08:11:35;14.70;47.40
25108;DHT22;13090;53.422;7.670;2023-04-06T08:16:37;15.00;48.00
25108;DHT22;13090;53.422;7.670;2023-04-06T08:21:42;15.30;46.20
25108;DHT22;13090;53.422;7.670;2023-04-06T08:26:46;15.40;46.10
25108;DHT22;13090;53.422;7.670;2023-04-06T08:31:48;15.60;44.90
25108;DHT22;13090;53.422;7.670;2023-04-06T08:36:50;15.70;46.20
25108;DHT22;13090;53.422;7.670;2023-04-06T08:41:54;15.90;43.00
25108;DHT22;13090;53.422;7.670;2023-04-06T08:46:57;15.80;44.50
25108;DHT22;13090;53.422;7.670;2023-04-06T08:52:01;16.00;43.10
25108;DHT22;13090;53.422;7.670;2023-04-06T08:57:05;16.10;45.70
25108;DHT22;13090;53.422;7.670;2023-04-06T09:02:15;16.40;42.90
25108;DHT22;13090;53.422;7.670;2023-04-06T09:07:19;16.60;43.30
25108;DHT22;13090;53.422;7.670;2023-04-06T09:12:25;16.70;40.50
25108;DHT22;13090;53.422;7.670;2023-04-06T09:17:28;16.70;40.70
25108;DHT22;13090;53.422;7.670;2023-04-06T09:22:36;16.70;40.90
25108;DHT22;13090;53.422;7.670;2023-04-06T09:27:40;16.80;41.30
25108;DHT22;13090;53.422;7.670;2023-04-06T09:32:47;17.00;40.40
25108;DHT22;13090;53.422;7.670;2023-04-06T09:37:51;17.10;41.20
25108;DHT22;13090;53.422;7.670;2023-04-06T09:42:55;17.20;41.00
25108;DHT22;13090;53.422;7.670;2023-04-06T09:47:57;17.30;38.50
25108;DHT22;13090;53.422;7.670;2023-04-06T09:53:01;17.30;38.00
25108;DHT22;13090;53.422;7.670;2023-04-06T09:58:09;17.20;40.70
25108;DHT22;13090;53.422;7.670;2023-04-06T10:03:18;17.40;40.60
25108;DHT22;13090;53.422;7.670;2023-04-06T10:08:24;17.60;38.30
25108;DHT22;13090;53.422;7.670;2023-04-06T10:13:28;17.60;40.10
25108;DHT22;13090;53.422;7.670;2023-04-06T10:18:30;17.70;38.80
25108;DHT22;13090;53.422;7.670;2023-04-06T10:23:35;17.70;37.80
25108;DHT22;13090;53.422;7.670;2023-04-06T10:28:41;17.60;38.30
25108;DHT22;13090;53.422;7.670;2023-04-06T10:33:53;17.70;39.60
25108;DHT22;13090;53.422;7.670;2023-04-06T10:38:57;18.00;40.10
25108;DHT22;13090;53.422;7.670;2023-04-06T10:44:02;18.30;39.70
25108;DHT22;13090;53.422;7.670;2023-04-06T10:49:11;18.50;39.50
25108;DHT22;13090;53.422;7.670;2023-04-06T10:54:17;18.60;38.20
25108;DHT22;13090;53.422;7.670;2023-04-06T10:59:23;18.70;37.60
25108;DHT22;13090;53.422;7.670;2023-04-06T11:04:30;18.80;37.20
25108;DHT22;13090;53.422;7.670;2023-04-06T11:09:33;18.80;37.40
25108;DHT22;13090;53.422;7.670;2023-04-06T11:14:37;18.90;37.10
25108;DHT22;13090;53.422;7.670;2023-04-06T11:19:39;18.90;36.20
25108;DHT22;13090;53.422;7.670;2023-04-06T11:24:42;18.80;35.70
25108;DHT22;13090;53.422;7.670;2023-04-06T11:29:46;18.70;36.40
25108;DHT22;13090;53.422;7.670;2023-04-06T11:34:49;18.80;36.60
25108;DHT22;13090;53.422;7.670;2023-04-06T11:39:56;19.00;36.70
25108;DHT22;13090;53.422;7.670;2023-04-06T11:44:59;19.10;35.70
25108;DHT22;13090;53.422;7.670;2023-04-06T11:50:10;19.10;35.50
25108;DHT22;13090;53.422;7.670;2023-04-06T11:55:14;19.10;36.20
25108;DHT22;13090;53.422;7.670;2023-04-06T12:00:21;19.10;35.70
25108;DHT22;13090;53.422;7.670;2023-04-06T12:05:23;19.10;35.10
25108;DHT22;13090;53.422;7.670;2023-04-06T12:10:26;19.10;35.60
25108;DHT22;13090;53.422;7.670;2023-04-06T12:15:29;19.10;35.90
25108;DHT22;13090;53.422;7.670;2023-04-06T12:20:31;19.40;34.00
25108;DHT22;13090;53.422;7.670;2023-04-06T12:25:34;19.20;32.90
25108;DHT22;13090;53.422;7.670;2023-04-06T12:30:37;18.90;33.10
25108;DHT22;13090;53.422;7.670;2023-04-06T12:35:40;18.60;33.40
25108;DHT22;13090;53.422;7.670;2023-04-06T12:40:42;18.40;34.50
25108;DHT22;13090;53.422;7.670;2023-04-06T12:45:46;18.20;34.90
25108;DHT22;13090;53.422;7.670;2023-04-06T12:50:54;18.00;34.50
25108;DHT22;13090;53.422;7.670;2023-04-06T12:55:59;17.70;35.10
25108;DHT22;13090;53.422;7.670;2023-04-06T13:01:06;17.40;34.90
25108;DHT22;13090;53.422;7.670;2023-04-06T13:06:10;17.20;35.50
25108;DHT22;13090;53.422;7.670;2023-04-06T13:11:12;17.10;36.40
25108;DHT22;13090;53.422;7.670;2023-04-06T13:16:16;17.10;35.70
25108;DHT22;13090;53.422;7.670;2023-04-06T13:21:18;17.10;36.10
25108;DHT22;13090;53.422;7.670;2023-04-06T13:26:21;17.10;35.60
25108;DHT22;13090;53.422;7.670;2023-04-06T13:31:25;17.10;35.40
25108;DHT22;13090;53.422;7.670;2023-04-06T13:36:28;16.90;35.40
25108;DHT22;13090;53.422;7.670;2023-04-06T13:41:30;16.70;35.70
25108;DHT22;13090;53.422;7.670;2023-04-06T13:46:35;16.40;35.60
25108;DHT22;13090;53.422;7.670;2023-04-06T13:51:38;16.30;36.30
25108;DHT22;13090;53.422;7.670;2023-04-06T13:56:41;16.20;36.90
25108;DHT22;13090;53.422;7.670;2023-04-06T14:01:45;16.10;37.10
25108;DHT22;13090;53.422;7.670;2023-04-06T14:06:47;16.10;36.60
25108;DHT22;13090;53.422;7.670;2023-04-06T14:11:50;16.20;36.70
25108;DHT22;13090;53.422;7.670;2023-04-06T14:16:54;16.10;36.80
25108;DHT22;13090;53.422;7.670;2023-04-06T14:21:57;16.10;37.00
25108;DHT22;13090;53.422;7.670;2023-04-06T14:26:59;16.10;37.40
25108;DHT22;13090;53.422;7.670;2023-04-06T14:32:13;16.20;37.10
25108;DHT22;13090;53.422;7.670;2023-04-06T14:37:27;16.20;36.80
25108;DHT22;13090;53.422;7.670;2023-04-06T14:42:29;16.20;36.70
25108;DHT22;13090;53.422;7.670;2023-04-06T14:47:33;16.20;37.10
25108;DHT22;13090;53.422;7.670;2023-04-06T14:52:35;16.10;36.60
25108;DHT22;13090;53.422;7.670;2023-04-06T14:57:38;16.00;36.40
25108;DHT22;13090;53.422;7.670;2023-04-06T15:02:43;16.00;36.60
25108;DHT22;13090;53.422;7.670;2023-04-06T15:07:46;15.90;36.80
25108;DHT22;13090;53.422;7.670;2023-04-06T15:12:48;15.90;37.00
25108;DHT22;13090;53.422;7.670;2023-04-06T15:17:53;15.90;37.00
25108;DHT22;13090;53.422;7.670;2023-04-06T15:22:55;15.90;36.70
25108;DHT22;13090;53.422;7.670;2023-04-06T15:27:58;15.90;36.70
25108;DHT22;13090;53.422;7.670;2023-04-06T15:33:04;15.90;36.90
25108;DHT22;13090;53.422;7.670;2023-04-06T15:38:08;15.80;36.70
25108;DHT22;13090;53.422;7.670;2023-04-06T15:43:11;15.80;36.60
25108;DHT22;13090;53.422;7.670;2023-04-06T15:48:16;15.90;37.10
25108;DHT22;13090;53.422;7.670;2023-04-06T15:53:19;15.90;37.10
25108;DHT22;13090;53.422;7.670;2023-04-06T15:58:21;16.00;37.70
25108;DHT22;13090;53.422;7.670;2023-04-06T16:03:26;16.10;37.80
25108;DHT22;13090;53.422;7.670;2023-04-06T16:08:29;16.10;37.40
25108;DHT22;13090;53.422;7.670;2023-04-06T16:13:32;16.10;37.40
25108;DHT22;13090;53.422;7.670;2023-04-06T16:18:37;16.00;37.20
25108;DHT22;13090;53.422;7.670;2023-04-06T16:23:39;16.00;37.60
25108;DHT22;13090;53.422;7.670;2023-04-06T16:28:41;16.00;37.80
25108;DHT22;13090;53.422;7.670;2023-04-06T16:33:45;16.00;37.50
25108;DHT22;13090;53.422;7.670;2023-04-06T16:38:48;15.90;37.60
25108;DHT22;13090;53.422;7.670;2023-04-06T16:43:50;15.80;38.00
25108;DHT22;13090;53.422;7.670;2023-04-06T16:48:54;15.80;38.10
25108;DHT22;13090;53.422;7.670;2023-04-06T16:53:56;15.70;38.30
25108;DHT22;13090;53.422;7.670;2023-04-06T16:58:58;15.50;38.60
25108;DHT22;13090;53.422;7.670;2023-04-06T17:04:02;15.40;38.90
25108;DHT22;13090;53.422;7.670;2023-04-06T17:09:04;15.30;39.40
25108;DHT22;13090;53.422;7.670;2023-04-06T17:14:07;15.20;39.50
25108;DHT22;13090;53.422;7.670;2023-04-06T17:19:11;15.10;39.80
25108;DHT22;13090;53.422;7.670;2023-04-06T17:24:13;15.00;40.10
25108;DHT22;13090;53.422;7.670;2023-04-06T17:29:15;14.90;40.20
25108;DHT22;13090;53.422;7.670;2023-04-06T17:34:19;14.80;40.50
25108;DHT22;13090;53.422;7.670;2023-04-06T17:39:21;14.60;40.70
25108;DHT22;13090;53.422;7.670;2023-04-06T17:44:23;14.50;40.80
25108;DHT22;13090;53.422;7.670;2023-04-06T17:49:27;14.50;41.00
25108;DHT22;13090;53.422;7.670;2023-04-06T17:54:32;14.30;41.30
25108;DHT22;13090;53.422;7.670;2023-04-06T17:59:35;14.30;41.30
25108;DHT22;13090;53.422;7.670;2023-04-06T18:04:39;14.10;41.40
25108;DHT22;13090;53.422;7.670;2023-04-06T18:09:44;14.00;41.70
25108;DHT22;13090;53.422;7.670;2023-04-06T18:14:46;13.90;41.80
25108;DHT22;13090;53.422;7.670;2023-04-06T18:19:50;13.80;41.90
25108;DHT22;13090;53.422;7.670;2023-04-06T18:24:52;13.80;42.20
25108;DHT22;13090;53.422;7.670;2023-04-06T18:29:54;13.70;42.20
25108;DHT22;13090;53.422;7.670;2023-04-06T18:34:58;13.70;43.10
25108;DHT22;13090;53.422;7.670;2023-04-06T18:40:00;13.60;42.90
25108;DHT22;13090;53.422;7.670;2023-04-06T18:45:03;13.60;43.10
25108;DHT22;13090;53.422;7.670;2023-04-06T18:50:09;13.60;43.20
25108;DHT22;13090;53.422;7.670;2023-04-06T18:55:12;13.60;43.40
25108;DHT22;13090;53.422;7.670;2023-04-06T19:00:15;13.60;43.30
25108;DHT22;13090;53.422;7.670;2023-04-06T19:05:19;13.60;43.70
25108;DHT22;13090;53.422;7.670;2023-04-06T19:10:21;13.50;44.20
25108;DHT22;13090;53.422;7.670;2023-04-06T19:15:23;13.50;44.50
25108;DHT22;13090;53.422;7.670;2023-04-06T19:20:27;13.50;45.00
25108;DHT22;13090;53.422;7.670;2023-04-06T19:25:29;13.50;45.60
25108;DHT22;13090;53.422;7.670;2023-04-06T19:30:31;13.40;45.80
25108;DHT22;13090;53.422;7.670;2023-04-06T19:35:35;13.40;46.30
25108;DHT22;13090;53.422;7.670;2023-04-06T19:40:37;13.30;46.80
25108;DHT22;13090;53.422;7.670;2023-04-06T19:45:39;13.30;47.10
25108;DHT22;13090;53.422;7.670;2023-04-06T19:50:43;13.20;47.40
25108;DHT22;13090;53.422;7.670;2023-04-06T19:55:45;13.20;47.60
25108;DHT22;13090;53.422;7.670;2023-04-06T20:00:53;13.20;48.00
25108;DHT22;13090;53.422;7.670;2023-04-06T20:05:59;13.10;48.60
25108;DHT22;13090;53.422;7.670;2023-04-06T20:11:08;13.10;48.80
25108;DHT22;13090;53.422;7.670;2023-04-06T20:16:11;13.00;48.90
25108;DHT22;13090;53.422;7.670;2023-04-06T20:21:16;13.00;49.10
25108;DHT22;13090;53.422;7.670;2023-04-06T20:26:18;12.90;49.60
25108;DHT22;13090;53.422;7.670;2023-04-06T20:31:25;12.80;51.20
25108;DHT22;13090;53.422;7.670;2023-04-06T20:36:29;12.70;51.20
25108;DHT22;13090;53.422;7.670;2023-04-06T20:41:33;12.60;50.90
25108;DHT22;13090;53.422;7.670;2023-04-06T20:46:35;12.60;50.80
25108;DHT22;13090;53.422;7.670;2023-04-06T20:51:39;12.60;50.80
25108;DHT22;13090;53.422;7.670;2023-04-06T20:56:41;12.60;50.80
25108;DHT22;13090;53.422;7.670;2023-04-06T21:01:43;12.50;50.90
25108;DHT22;13090;53.422;7.670;2023-04-06T21:06:47;12.40;51.10
25108;DHT22;13090;53.422;7.670;2023-04-06T21:11:49;12.40;51.40
25108;DHT22;13090;53.422;7.670;2023-04-06T21:16:51;12.40;51.40
25108;DHT22;13090;53.422;7.670;2023-04-06T21:21:58;12.40;51.50
25108;DHT22;13090;53.422;7.670;2023-04-06T21:27:00;12.30;51.80
25108;DHT22;13090;53.422;7.670;2023-04-06T21:32:02;12.30;52.90
25108;DHT22;13090;53.422;7.670;2023-04-06T21:37:06;12.20;56.70
25108;DHT22;13090;53.422;7.670;2023-04-06T21:42:08;11.90;54.20
25108;DHT22;13090;53.422;7.670;2023-04-06T21:47:13;11.90;54.20
25108;DHT22;13090;53.422;7.670;2023-04-06T21:52:18;11.80;56.50
25108;DHT22;13090;53.422;7.670;2023-04-06T21:57:20;11.70;55.80
25108;DHT22;13090;53.422;7.670;2023-04-06T22:02:23;11.60;55.60
25108;DHT22;13090;53.422;7.670;2023-04-06T22:07:28;11.50;55.90
25108;DHT22;13090;53.422;7.670;2023-04-06T22:12:30;11.40;55.90
25108;DHT22;13090;53.422;7.670;2023-04-06T22:17:32;11.30;56.70
25108;DHT22;13090;53.422;7.670;2023-04-06T22:22:36;11.20;58.70
25108;DHT22;13090;53.422;7.670;2023-04-06T22:27:38;11.10;56.80
25108;DHT22;13090;53.422;7.670;2023-04-06T22:32:40;11.10;57.20
25108;DHT22;13090;53.422;7.670;2023-04-06T22:37:43;11.00;56.30
25108;DHT22;13090;53.422;7.670;2023-04-06T22:42:45;11.00;57.70
25108;DHT22;13090;53.422;7.670;2023-04-06T22:47:48;10.90;58.00
25108;DHT22;13090;53.422;7.670;2023-04-06T22:52:51;10.90;58.70
25108;DHT22;13090;53.422;7.670;2023-04-06T22:57:54;10.90;58.70
25108;DHT22;13090;53.422;7.670;2023-04-06T23:02:56;10.80;58.10
25108;DHT22;13090;53.422;7.670;2023-04-06T23:08:00;10.80;60.90
25108;DHT22;13090;53.422;7.670;2023-04-06T23:13:04;10.70;65.90
25108;DHT22;13090;53.422;7.670;2023-04-06T23:18:06;10.50;65.30
25108;DHT22;13090;53.422;7.670;2023-04-06T23:23:10;10.40;64.90
25108;DHT22;13090;53.422;7.670;2023-04-06T23:28:12;10.30;65.10
25108;DHT22;13090;53.422;7.670;2023-04-06T23:33:14;10.30;63.70
25108;DHT22;13090;53.422;7.670;2023-04-06T23:38:17;10.30;64.60
25108;DHT22;13090;53.422;7.670;2023-04-06T23:43:20;10.20;66.80
25108;DHT22;13090;53.422;7.670;2023-04-06T23:48:22;10.20;70.70
25108;DHT22;13090;53.422;7.670;2023-04-06T23:53:25;10.20;69.90
25108;DHT22;13090;53.422;7.670;2023-04-06T23:58:28;10.10;72.70
